Time;durP1;ratioP1;P1;durP2;ratioP2;P2;SDS_P1;SDS_P2;PMS_P1;PMS_P2;Temp;Humidity;BMP_temperature;BMP_pressure;BME280_temperature;BME280_humidity;BME280_pressure;Samples;Min_cycle;Max_cycle;Signal;HPM_P1;HPM_P2
2023/06/23 00:00:00;;;;;;;;;;;;;;;27.05;42.19;100979.09;5077649;28;1022;-24
2023/06/23 00:02:27;;;;;;;;;;;;;;;26.68;44.36;100976.00;5077953;28;1106;-23
2023/06/23 00:04:52;;;;;;;;;;;;;;;27.19;42.51;100977.50;5090614;28;1027;-22
2023/06/23 00:07:19;;;;;;;;;;;;;;;26.90;42.48;100975.25;5078863;28;1086;-25
2023/06/23 00:09:44;;;;;;;;;;;;;;;26.31;45.32;100978.31;5076452;28;907;-23
2023/06/23 00:12:10;;;;;;;;;;;;;;;27.06;41.45;100970.81;5091180;28;1183;-23
2023/06/23 00:14:36;;;;;;;;;;;;;;;26.62;43.94;100972.19;5078880;28;1910;-23
2023/06/23 00:17:02;;;;;;;;;;;;;;;26.86;43.86;100973.09;5076548;28;1046;-23
2023/06/23 00:19:31;;;;;;;;;;;;;;;26.81;42.53;100976.31;5070441;28;1038;-21
2023/06/23 00:21:57;;;;;;;;;;;;;;;26.37;44.71;100972.25;5092185;28;1166;-22
2023/06/23 00:24:22;;;;;;;;;;;;;;;27.06;41.52;100975.41;5088997;28;1153;-22
2023/06/23 00:26:48;;;;;;;;;;;;;;;26.74;42.91;100975.34;5097832;28;1185;-24
2023/06/23 00:29:15;;;;;;;;;;;;;;;26.56;43.80;100983.66;5097587;28;1038;-21
2023/06/23 00:31:40;;;;;;;;;;;;;;;26.92;41.76;100977.78;5083709;28;1071;-22
2023/06/23 00:34:06;;;;;;;;;;;;;;;26.50;44.01;100979.78;5094693;28;1910;-22
2023/06/23 00:36:31;;;;;;;;;;;;;;;27.18;40.61;100973.09;5060898;28;1027;-22
2023/06/23 00:38:58;;;;;;;;;;;;;;;26.79;42.18;100981.06;5059306;28;1265;-21
2023/06/23 00:41:24;;;;;;;;;;;;;;;26.41;44.24;100979.81;5077287;28;1070;-22
2023/06/23 00:43:50;;;;;;;;;;;;;;;27.19;40.78;100978.34;5078856;28;1222;-21
2023/06/23 00:46:20;;;;;;;;;;;;;;;26.75;43.05;100971.63;5088558;28;1153;-22
2023/06/23 00:48:46;;;;;;;;;;;;;;;26.92;42.85;100975.09;5084872;28;1158;-21
2023/06/23 00:51:12;;;;;;;;;;;;;;;26.89;42.19;100959.25;5076461;28;1102;-24
2023/06/23 00:53:37;;;;;;;;;;;;;;;26.35;43.79;100968.88;5075739;28;1971;-23
2023/06/23 00:56:03;;;;;;;;;;;;;;;26.92;41.14;100968.84;5075475;28;1098;-22
2023/06/23 00:58:29;;;;;;;;;;;;;;;26.72;42.02;100975.50;5078073;28;1538;-25
2023/06/23 01:00:54;;;;;;;;;;;;;;;26.77;43.05;100978.53;5077631;28;1137;-22
2023/06/23 01:03:20;;;;;;;;;;;;;;;26.87;41.29;100980.16;5076400;28;1139;-22
2023/06/23 01:05:45;;;;;;;;;;;;;;;26.59;43.20;100980.63;5076563;28;1227;-25
2023/06/23 01:08:17;;;;;;;;;;;;;;;27.24;40.33;100984.03;5088851;28;1133;-24
2023/06/23 01:10:47;;;;;;;;;;;;;;;26.87;41.72;100974.78;5087068;28;1173;-22
2023/06/23 01:13:22;;;;;;;;;;;;;;;26.40;43.58;100980.00;5085977;28;1910;-21
2023/06/23 01:15:54;;;;;;;;;;;;;;;27.06;40.77;100978.09;5078817;28;1338;-25
2023/06/23 01:18:23;;;;;;;;;;;;;;;26.73;42.22;100979.03;5081431;28;1053;-23
2023/06/23 01:20:48;;;;;;;;;;;;;;;26.94;42.51;100975.75;5058117;28;1182;-21
2023/06/23 01:23:35;;;;;;;;;;;;;;;26.94;41.03;100981.16;5062770;28;1010;-23
2023/06/23 01:26:07;;;;;;;;;;;;;;;26.65;42.66;100983.47;5077130;28;1083;-22
2023/06/23 01:28:41;;;;;;;;;;;;;;;27.01;41.64;100974.03;5076348;28;1122;-23
2023/06/23 01:31:13;;;;;;;;;;;;;;;26.89;41.10;100981.66;5071549;28;1150;-23
2023/06/23 01:33:41;;;;;;;;;;;;;;;26.64;42.87;100981.75;5077836;28;1906;-23
2023/06/23 01:36:08;;;;;;;;;;;;;;;27.21;39.91;100984.41;5064317;28;1078;-23
2023/06/23 01:38:36;;;;;;;;;;;;;;;26.92;41.11;100980.47;5070568;28;2274;-21
2023/06/23 01:41:06;;;;;;;;;;;;;;;26.51;42.99;100985.00;5058472;28;1270;-22
2023/06/23 01:43:32;;;;;;;;;;;;;;;27.08;40.30;100998.47;5084062;28;1105;-22
2023/06/23 01:46:08;;;;;;;;;;;;;;;26.81;41.96;100994.38;5069733;28;1310;-21
2023/06/23 01:48:34;;;;;;;;;;;;;;;26.92;42.13;100990.44;5078052;28;1023;-22
2023/06/23 01:51:02;;;;;;;;;;;;;;;26.93;41.20;100992.94;5082468;28;1193;-22
2023/06/23 01:53:27;;;;;;;;;;;;;;;26.52;42.81;101002.91;5077661;28;1968;-21
2023/06/23 01:55:53;;;;;;;;;;;;;;;27.19;40.01;101001.81;5064685;28;1054;-22
2023/06/23 01:58:19;;;;;;;;;;;;;;;26.84;41.04;100997.53;5067736;28;1124;-22
2023/06/23 02:00:45;;;;;;;;;;;;;;;26.78;42.28;101006.34;5071449;28;1228;-22
2023/06/23 02:03:10;;;;;;;;;;;;;;;27.17;40.24;100996.59;5074149;28;1105;-22
2023/06/23 02:05:37;;;;;;;;;;;;;;;26.69;42.10;100997.47;5074765;28;1102;-22
2023/06/23 02:08:03;;;;;;;;;;;;;;;27.16;39.53;100991.38;5078393;28;1113;-22
2023/06/23 02:10:29;;;;;;;;;;;;;;;26.94;40.77;100989.25;5087108;28;1178;-22
2023/06/23 02:12:55;;;;;;;;;;;;;;;26.55;42.28;100998.16;5067176;28;1963;-22
2023/06/23 02:15:20;;;;;;;;;;;;;;;26.97;40.26;100994.31;5065077;28;1261;-21
2023/06/23 02:17:46;;;;;;;;;;;;;;;26.70;41.63;100993.72;5051130;28;1322;-23
2023/06/23 02:20:16;;;;;;;;;;;;;;;26.99;40.83;100992.25;5074383;28;1173;-25
2023/06/23 02:22:45;;;;;;;;;;;;;;;27.01;40.01;100992.06;5061700;28;1116;-23
2023/06/23 02:25:11;;;;;;;;;;;;;;;26.48;42.37;100998.84;5064178;28;1035;-21
2023/06/23 02:27:36;;;;;;;;;;;;;;;22.81;53.63;100988.78;5066460;28;1115;-22
2023/06/23 02:30:02;;;;;;;;;;;;;;;24.85;46.47;100995.59;5076054;28;1130;-22
2023/06/23 02:32:29;;;;;;;;;;;;;;;25.80;43.65;101005.31;5076791;28;1918;-24
2023/06/23 02:34:54;;;;;;;;;;;;;;;26.59;40.89;101015.69;5087547;28;1225;-22
2023/06/23 02:37:21;;;;;;;;;;;;;;;27.06;40.16;101011.31;5072918;28;1074;-21
2023/06/23 02:39:50;;;;;;;;;;;;;;;27.20;39.29;101011.59;5081609;28;1142;-24
2023/06/23 02:42:15;;;;;;;;;;;;;;;27.19;39.34;101013.47;5099553;28;1157;-21
2023/06/23 02:44:48;;;;;;;;;;;;;;;27.29;38.88;101015.09;5064273;28;1305;-24
2023/06/23 02:47:14;;;;;;;;;;;;;;;27.25;39.04;101028.09;5072409;28;1009;-25
2023/06/23 02:49:39;;;;;;;;;;;;;;;27.32;38.77;101020.97;5079819;28;1095;-24
2023/06/23 02:52:06;;;;;;;;;;;;;;;27.29;38.63;101017.78;5081325;28;1150;-22
2023/06/23 02:54:32;;;;;;;;;;;;;;;27.33;38.54;101019.94;5084494;28;1984;-22
2023/06/23 02:56:58;;;;;;;;;;;;;;;27.32;38.49;101015.56;5085894;28;1075;-24
2023/06/23 02:59:24;;;;;;;;;;;;;;;27.45;38.08;101020.38;5072507;28;1078;-22
2023/06/23 03:01:52;;;;;;;;;;;;;;;27.32;38.37;101023.69;5075322;28;1374;-22
2023/06/23 03:04:18;;;;;;;;;;;;;;;27.13;40.10;101019.56;5080863;28;1125;-19
2023/06/23 03:06:44;;;;;;;;;;;;;;;26.04;48.37;101017.09;5070107;28;1135;-21
2023/06/23 03:09:10;;;;;;;;;;;;;;;25.67;49.61;101019.25;5068811;28;1170;-21
2023/06/23 03:11:36;;;;;;;;;;;;;;;25.70;49.95;101020.78;5092203;28;1086;-20
2023/06/23 03:14:01;;;;;;;;;;;;;;;25.65;48.58;101017.75;5060978;28;2035;-20
2023/06/23 03:16:44;;;;;;;;;;;;;;;25.74;50.06;101015.91;5078485;28;1198;-20
2023/06/23 03:19:29;;;;;;;;;;;;;;;25.78;50.35;101028.88;5061041;28;1285;-20
2023/06/23 03:22:10;;;;;;;;;;;;;;;25.73;50.87;101022.28;5060663;28;1242;-20
2023/06/23 03:24:39;;;;;;;;;;;;;;;25.74;49.42;101019.44;5048659;28;1397;-20
2023/06/23 03:27:07;;;;;;;;;;;;;;;25.74;51.66;101026.69;5080454;28;1328;-20
2023/06/23 03:29:36;;;;;;;;;;;;;;;25.84;50.98;101021.16;5063516;28;1325;-20
2023/06/23 03:32:03;;;;;;;;;;;;;;;25.87;51.42;101024.34;5098429;28;1214;-20
2023/06/23 03:34:32;;;;;;;;;;;;;;;25.87;51.42;101026.19;5079941;28;2249;-20
2023/06/23 03:36:58;;;;;;;;;;;;;;;25.99;50.60;101024.84;5072205;28;1030;-21
2023/06/23 03:39:24;;;;;;;;;;;;;;;26.14;51.68;101022.31;5079494;28;1075;-20
2023/06/23 03:41:49;;;;;;;;;;;;;;;25.86;53.39;101022.66;5071773;28;1071;-21
2023/06/23 03:44:23;;;;;;;;;;;;;;;25.79;53.41;101027.03;5091261;28;1051;-20
2023/06/23 03:46:52;;;;;;;;;;;;;;;25.85;52.84;101020.97;5080636;28;1055;-20
2023/06/23 03:49:18;;;;;;;;;;;;;;;25.03;56.26;101025.97;5084692;28;1345;-21
2023/06/23 03:51:43;;;;;;;;;;;;;;;24.93;56.66;101030.63;5080496;28;1055;-20
2023/06/23 03:54:09;;;;;;;;;;;;;;;25.31;55.76;101025.72;5076860;28;1918;-20
2023/06/23 03:56:34;;;;;;;;;;;;;;;26.44;51.28;101024.50;5080077;28;1062;-20
2023/06/23 03:59:00;;;;;;;;;;;;;;;26.86;49.35;101019.00;5094416;28;1050;-20
2023/06/23 04:01:26;;;;;;;;;;;;;;;26.95;49.57;101025.16;5078200;28;1039;-20
2023/06/23 04:03:52;;;;;;;;;;;;;;;26.62;51.02;101029.69;5075863;28;1153;-20
2023/06/23 04:06:17;;;;;;;;;;;;;;;26.56;51.25;101037.63;5060183;28;1199;-20
2023/06/23 04:08:43;;;;;;;;;;;;;;;27.08;49.36;101032.72;5079573;28;1129;-20
2023/06/23 04:11:08;;;;;;;;;;;;;;;27.22;47.82;101028.47;5078348;28;1026;-19
2023/06/23 04:13:34;;;;;;;;;;;;;;;27.31;47.99;101035.50;5081741;28;1906;-19
2023/06/23 04:15:59;;;;;;;;;;;;;;;27.50;47.56;101041.47;5076742;28;1083;-20
2023/06/23 04:18:25;;;;;;;;;;;;;;;27.54;46.31;101034.69;5076046;28;1547;-19
2023/06/23 04:20:50;;;;;;;;;;;;;;;27.29;47.96;101040.25;5059069;28;1123;-22
2023/06/23 04:23:16;;;;;;;;;;;;;;;26.82;51.74;101037.38;5077266;28;1170;-23
2023/06/23 04:25:42;;;;;;;;;;;;;;;27.13;50.13;101035.75;5085195;28;1095;-22
2023/06/23 04:28:07;;;;;;;;;;;;;;;27.16;48.76;101032.69;5082071;28;1221;-21
2023/06/23 04:30:34;;;;;;;;;;;;;;;27.02;50.29;101032.44;5077465;28;1154;-24
2023/06/23 04:32:59;;;;;;;;;;;;;;;27.07;49.45;101031.06;5077081;28;1918;-21
2023/06/23 04:35:25;;;;;;;;;;;;;;;27.36;48.92;101033.09;5077724;28;905;-22
2023/06/23 04:37:57;;;;;;;;;;;;;;;27.51;49.42;101026.91;5076672;28;1101;-20
2023/06/23 04:40:36;;;;;;;;;;;;;;;27.67;47.64;101028.69;5077493;28;1166;-22
2023/06/23 04:43:09;;;;;;;;;;;;;;;27.47;49.09;101037.28;5075416;28;1089;-20
2023/06/23 04:45:36;;;;;;;;;;;;;;;27.68;48.18;101037.63;5077010;28;1058;-21
2023/06/23 04:48:01;;;;;;;;;;;;;;;27.68;48.08;101043.91;5083807;28;1146;-21
2023/06/23 04:50:27;;;;;;;;;;;;;;;27.57;48.25;101041.59;5079446;28;1000;-21
2023/06/23 04:52:53;;;;;;;;;;;;;;;27.60;48.95;101043.94;5065739;28;1918;-21
2023/06/23 04:55:19;;;;;;;;;;;;;;;27.40;48.63;101033.59;5065251;28;1082;-21
2023/06/23 04:57:45;;;;;;;;;;;;;;;27.52;49.13;101039.44;5096629;28;1071;-23
2023/06/23 05:00:11;;;;;;;;;;;;;;;27.60;49.24;101030.41;5066038;28;832;-22
2023/06/23 05:02:37;;;;;;;;;;;;;;;27.58;48.06;101037.84;5079007;28;1071;-25
2023/06/23 05:05:03;;;;;;;;;;;;;;;27.98;45.67;101043.16;5066399;28;1415;-23
2023/06/23 05:07:28;;;;;;;;;;;;;;;27.83;47.13;101043.97;5072666;28;1102;-25
2023/06/23 05:09:54;;;;;;;;;;;;;;;27.71;42.01;101040.84;5075950;28;1105;-21
2023/06/23 05:12:20;;;;;;;;;;;;;;;27.80;42.98;101044.34;5090055;28;1086;-21
2023/06/23 05:14:46;;;;;;;;;;;;;;;27.91;44.71;101040.34;5075840;28;1906;-24
2023/06/23 05:17:13;;;;;;;;;;;;;;;28.35;43.25;101037.97;5090199;28;1078;-23
2023/06/23 05:19:39;;;;;;;;;;;;;;;28.17;43.94;101038.28;5078376;28;1187;-25
2023/06/23 05:22:08;;;;;;;;;;;;;;;27.96;44.18;101043.34;5064751;28;1076;-22
2023/06/23 05:24:35;;;;;;;;;;;;;;;28.09;43.67;101047.31;5085672;28;856;-22
2023/06/23 05:27:01;;;;;;;;;;;;;;;28.17;43.21;101055.38;5075090;28;1154;-22
2023/06/23 05:29:27;;;;;;;;;;;;;;;28.35;42.96;101052.34;5077970;28;1134;-22
2023/06/23 05:31:52;;;;;;;;;;;;;;;28.24;43.69;101047.34;5061111;28;1595;-23
2023/06/23 05:34:18;;;;;;;;;;;;;;;28.24;43.85;101045.47;5078099;28;1967;-24
2023/06/23 05:36:44;;;;;;;;;;;;;;;28.38;43.59;101050.31;5073155;28;1190;-22
2023/06/23 05:39:10;;;;;;;;;;;;;;;28.34;43.60;101044.41;5085886;28;1115;-22
2023/06/23 05:41:35;;;;;;;;;;;;;;;28.48;43.30;101054.41;5096276;28;1086;-22
2023/06/23 05:44:01;;;;;;;;;;;;;;;28.34;43.86;101058.75;5067707;28;1055;-22
2023/06/23 05:46:26;;;;;;;;;;;;;;;28.40;43.33;101056.34;5079623;28;1038;-25
2023/06/23 05:48:52;;;;;;;;;;;;;;;28.45;43.36;101054.78;5067659;28;841;-22
2023/06/23 05:51:25;;;;;;;;;;;;;;;28.40;43.46;101059.91;5079902;28;1109;-21
2023/06/23 05:53:51;;;;;;;;;;;;;;;28.47;43.36;101068.13;5084516;28;1905;-21
2023/06/23 05:56:22;;;;;;;;;;;;;;;28.43;43.62;101066.81;5078204;28;1078;-21
2023/06/23 05:58:47;;;;;;;;;;;;;;;28.42;44.63;101067.84;5065786;28;1055;-21
2023/06/23 06:01:17;;;;;;;;;;;;;;;28.27;44.85;101067.78;5078033;28;962;-24
2023/06/23 06:03:44;;;;;;;;;;;;;;;28.14;45.11;101063.84;5065529;28;1151;-23
2023/06/23 06:06:10;;;;;;;;;;;;;;;28.21;45.01;101059.38;5081825;28;1058;-21
2023/06/23 06:08:35;;;;;;;;;;;;;;;28.22;44.56;101058.38;5070650;28;1186;-21
2023/06/23 06:11:01;;;;;;;;;;;;;;;28.23;43.94;101053.78;5075952;28;1034;-21
2023/06/23 06:13:27;;;;;;;;;;;;;;;28.37;43.60;101052.16;5070945;28;1911;-23
2023/06/23 06:15:52;;;;;;;;;;;;;;;28.20;44.06;101057.69;5088120;28;1095;-22
2023/06/23 06:18:18;;;;;;;;;;;;;;;28.27;43.46;101051.53;5079967;28;1154;-21
2023/06/23 06:20:44;;;;;;;;;;;;;;;28.26;43.84;101048.00;5078514;28;1078;-22
2023/06/23 06:23:09;;;;;;;;;;;;;;;28.18;44.03;101050.78;5093298;28;1134;-23
2023/06/23 06:25:35;;;;;;;;;;;;;;;28.25;43.80;101062.56;5073760;28;1139;-22
2023/06/23 06:28:02;;;;;;;;;;;;;;;28.40;43.62;101050.94;5081252;28;1091;-22
2023/06/23 06:30:27;;;;;;;;;;;;;;;28.29;44.10;101049.50;5076372;28;1229;-22
2023/06/23 06:32:53;;;;;;;;;;;;;;;28.29;44.09;101053.06;5085991;28;1905;-21
2023/06/23 06:35:18;;;;;;;;;;;;;;;28.35;43.66;101041.53;5094470;28;1170;-22
2023/06/23 06:37:50;;;;;;;;;;;;;;;28.33;43.72;101042.72;5062345;28;1074;-23
2023/06/23 06:40:17;;;;;;;;;;;;;;;28.36;43.58;101047.78;5067649;28;1151;-22
2023/06/23 06:42:42;;;;;;;;;;;;;;;28.24;44.09;101045.47;5086685;28;1050;-21
2023/06/23 06:45:08;;;;;;;;;;;;;;;28.29;43.43;101044.09;5095658;28;1165;-22
2023/06/23 06:47:34;;;;;;;;;;;;;;;28.40;43.63;101040.13;5081526;28;1130;-20
2023/06/23 06:50:00;;;;;;;;;;;;;;;28.50;43.48;101040.69;5068711;28;1105;-20
2023/06/23 06:52:26;;;;;;;;;;;;;;;28.32;43.72;101036.47;5081514;28;1097;-21
2023/06/23 06:54:52;;;;;;;;;;;;;;;28.44;43.39;101036.88;5081003;28;2054;-21
2023/06/23 06:57:18;;;;;;;;;;;;;;;28.51;42.59;101038.84;5073696;28;1067;-20
2023/06/23 06:59:44;;;;;;;;;;;;;;;28.62;42.54;101037.53;5092665;28;1276;-21
2023/06/23 07:02:09;;;;;;;;;;;;;;;28.64;42.76;101032.78;5077365;28;1170;-23
2023/06/23 07:04:34;;;;;;;;;;;;;;;28.87;42.09;101035.38;5080193;28;1246;-21
2023/06/23 07:07:00;;;;;;;;;;;;;;;29.00;42.32;101032.03;5089894;28;1131;-20
2023/06/23 07:09:26;;;;;;;;;;;;;;;29.01;42.05;101035.59;5092297;28;1039;-21
2023/06/23 07:11:51;;;;;;;;;;;;;;;28.72;41.64;101025.41;5091235;28;1221;-20
2023/06/23 07:14:16;;;;;;;;;;;;;;;28.78;40.89;101031.09;5074721;28;1950;-21
2023/06/23 07:16:42;;;;;;;;;;;;;;;28.82;41.30;101027.81;5097152;28;1130;-20
2023/06/23 07:19:07;;;;;;;;;;;;;;;28.88;41.56;101028.91;5078019;28;1177;-20
2023/06/23 07:21:33;;;;;;;;;;;;;;;28.99;41.12;101032.22;5092913;28;1090;-21
2023/06/23 07:23:59;;;;;;;;;;;;;;;29.03;40.67;101025.41;5086123;28;1027;-21
2023/06/23 07:26:24;;;;;;;;;;;;;;;28.86;41.06;101028.28;5067037;28;1074;-20
2023/06/23 07:28:50;;;;;;;;;;;;;;;28.95;41.25;101031.72;5087323;28;1224;-20
2023/06/23 07:31:15;;;;;;;;;;;;;;;28.90;41.28;101031.44;5098585;28;1077;-21
2023/06/23 07:33:43;;;;;;;;;;;;;;;28.84;41.53;101028.44;5076821;28;2000;-20
2023/06/23 07:36:09;;;;;;;;;;;;;;;28.92;41.38;101026.69;5081406;28;1146;-20
2023/06/23 07:38:34;;;;;;;;;;;;;;;28.84;41.28;101031.16;5078221;28;1085;-22
2023/06/23 07:41:00;;;;;;;;;;;;;;;28.83;41.23;101029.50;5078685;28;1151;-20
2023/06/23 07:43:25;;;;;;;;;;;;;;;28.93;41.35;101040.03;5066296;28;1047;-21
2023/06/23 07:45:51;;;;;;;;;;;;;;;28.74;41.70;101025.22;5092096;28;1015;-20
2023/06/23 07:48:16;;;;;;;;;;;;;;;28.76;41.13;101025.03;5091724;28;1248;-21
2023/06/23 07:50:43;;;;;;;;;;;;;;;28.82;41.41;101035.09;5084220;28;1123;-20
2023/06/23 07:53:09;;;;;;;;;;;;;;;28.80;41.47;101032.59;5077894;28;1913;-21
2023/06/23 07:55:34;;;;;;;;;;;;;;;28.75;41.22;101031.44;5082647;28;1166;-20
2023/06/23 07:58:00;;;;;;;;;;;;;;;28.77;40.49;101030.25;5091028;28;1078;-21
2023/06/23 08:00:26;;;;;;;;;;;;;;;28.67;41.02;101021.56;5090060;28;1143;-22
2023/06/23 08:02:51;;;;;;;;;;;;;;;28.68;41.02;101023.22;5098375;28;1082;-21
2023/06/23 08:05:17;;;;;;;;;;;;;;;28.69;41.48;101024.94;5078227;28;1221;-21
2023/06/23 08:07:44;;;;;;;;;;;;;;;29.00;40.50;101023.06;5098311;28;1085;-21
2023/06/23 08:10:10;;;;;;;;;;;;;;;29.02;40.35;101024.56;5084123;28;1166;-21
2023/06/23 08:12:37;;;;;;;;;;;;;;;28.82;40.76;101027.81;5084197;28;1918;-20
2023/06/23 08:15:03;;;;;;;;;;;;;;;28.68;40.73;101024.09;5095145;28;1217;-19
2023/06/23 08:17:29;;;;;;;;;;;;;;;28.65;40.79;101027.16;5085101;28;1074;-20
2023/06/23 08:19:54;;;;;;;;;;;;;;;28.40;41.60;101024.72;5095038;28;1045;-20
2023/06/23 08:22:20;;;;;;;;;;;;;;;28.57;41.21;101025.41;5097869;28;1026;-22
2023/06/23 08:24:45;;;;;;;;;;;;;;;28.42;41.48;101016.44;5092419;28;1049;-21
2023/06/23 08:27:11;;;;;;;;;;;;;;;28.53;40.95;101017.84;5084681;28;1144;-20
2023/06/23 08:29:38;;;;;;;;;;;;;;;28.59;40.50;101014.38;5088018;28;1102;-21
2023/06/23 08:32:03;;;;;;;;;;;;;;;28.59;40.99;101008.97;5097722;28;1300;-21
2023/06/23 08:34:29;;;;;;;;;;;;;;;28.58;40.51;101008.13;5090247;28;1901;-21
2023/06/23 08:36:54;;;;;;;;;;;;;;;28.51;40.57;101009.06;5084409;28;1073;-22
2023/06/23 08:39:20;;;;;;;;;;;;;;;28.40;40.30;101010.34;5088966;28;1010;-21
2023/06/23 08:41:46;;;;;;;;;;;;;;;28.40;40.46;101005.78;5077185;28;1191;-21
2023/06/23 08:44:13;;;;;;;;;;;;;;;28.22;40.66;101000.72;5080269;28;1167;-22
2023/06/23 08:46:40;;;;;;;;;;;;;;;28.33;40.52;101002.13;5083024;28;1069;-21
2023/06/23 08:49:05;;;;;;;;;;;;;;;28.27;40.98;100998.28;5089055;28;1253;-20
2023/06/23 08:51:32;;;;;;;;;;;;;;;28.24;40.78;100998.66;5076451;28;1274;-21
2023/06/23 08:53:57;;;;;;;;;;;;;;;28.35;40.61;101000.94;5076116;28;1971;-21
2023/06/23 08:56:23;;;;;;;;;;;;;;;28.32;40.90;101000.44;5076810;28;1361;-21
2023/06/23 08:58:48;;;;;;;;;;;;;;;28.25;40.92;101003.03;5072070;28;1135;-21
2023/06/23 09:01:14;;;;;;;;;;;;;;;28.32;40.47;100998.59;5078562;28;1162;-20
2023/06/23 09:03:39;;;;;;;;;;;;;;;28.22;40.64;101006.13;5090798;28;1066;-22
2023/06/23 09:06:05;;;;;;;;;;;;;;;28.23;40.64;100999.66;5076926;28;1067;-21
2023/06/23 09:08:30;;;;;;;;;;;;;;;28.33;39.85;100994.03;5079432;28;1107;-20
2023/06/23 09:10:56;;;;;;;;;;;;;;;28.52;39.24;100998.06;5087642;28;1074;-22
2023/06/23 09:13:41;;;;;;;;;;;;;;;28.29;39.88;100995.41;5090022;28;1898;-21
2023/06/23 09:16:08;;;;;;;;;;;;;;;28.53;39.21;101001.63;5086049;28;1501;-20
2023/06/23 09:18:38;;;;;;;;;;;;;;;27.81;35.12;100985.72;5083648;28;1201;-21
2023/06/23 09:21:04;;;;;;;;;;;;;;;28.20;35.02;100990.06;5083399;28;1102;-21
2023/06/23 09:23:31;;;;;;;;;;;;;;;28.16;37.22;100980.63;5094140;28;1086;-21
2023/06/23 09:25:56;;;;;;;;;;;;;;;28.17;38.31;100976.94;5085320;28;1130;-20
2023/06/23 09:28:37;;;;;;;;;;;;;;;28.32;38.28;100976.94;5094169;28;1094;-21
2023/06/23 09:31:12;;;;;;;;;;;;;;;28.46;38.19;100971.75;5096501;28;1165;-21
2023/06/23 09:33:53;;;;;;;;;;;;;;;28.40;38.49;100977.88;5083673;28;1989;-21
2023/06/23 09:36:18;;;;;;;;;;;;;;;28.46;38.50;100974.47;5089771;28;1042;-21
2023/06/23 09:38:44;;;;;;;;;;;;;;;28.50;38.38;100985.72;5081754;28;899;-21
2023/06/23 09:41:30;;;;;;;;;;;;;;;28.48;38.66;100981.34;5080917;28;1146;-21
2023/06/23 09:43:57;;;;;;;;;;;;;;;28.67;38.07;100989.09;5076185;28;1086;-20
2023/06/23 09:46:26;;;;;;;;;;;;;;;28.62;38.22;100986.09;5082854;28;1213;-21
2023/06/23 09:48:52;;;;;;;;;;;;;;;28.67;38.82;100989.94;5090947;28;1087;-20
2023/06/23 09:51:21;;;;;;;;;;;;;;;23.54;48.59;100988.94;5081987;28;1221;-21
2023/06/23 09:53:46;;;;;;;;;;;;;;;21.29;53.00;100991.88;5089208;28;1909;-22
2023/06/23 09:56:15;;;;;;;;;;;;;;;20.53;54.15;100979.75;5079143;28;1527;-20
2023/06/23 09:58:41;;;;;;;;;;;;;;;20.65;56.70;100975.97;5092294;28;1077;-20
2023/06/23 10:01:08;;;;;;;;;;;;;;;20.77;56.79;100976.75;5094027;28;1150;-21
2023/06/23 10:03:43;;;;;;;;;;;;;;;20.66;57.53;100975.03;5079214;28;1170;-21
2023/06/23 10:06:09;;;;;;;;;;;;;;;20.54;58.18;100968.91;5076398;28;1206;-20
2023/06/23 10:08:40;;;;;;;;;;;;;;;20.49;58.45;100972.94;5093323;28;1141;-20
2023/06/23 10:11:06;;;;;;;;;;;;;;;20.31;58.98;100976.25;5084152;28;1034;-21
2023/06/23 10:13:32;;;;;;;;;;;;;;;20.26;59.26;100970.44;5077589;28;1906;-21
2023/06/23 10:15:57;;;;;;;;;;;;;;;20.19;59.09;100968.31;5096153;28;1157;-21
2023/06/23 10:18:24;;;;;;;;;;;;;;;20.12;59.75;100968.97;5076210;28;1145;-21
2023/06/23 10:20:49;;;;;;;;;;;;;;;20.09;59.53;100970.06;5076036;28;1015;-20
2023/06/23 10:23:15;;;;;;;;;;;;;;;20.08;59.57;100967.50;5074616;28;1134;-21
2023/06/23 10:25:40;;;;;;;;;;;;;;;19.97;59.74;100971.06;5081451;28;1139;-20
2023/06/23 10:28:07;;;;;;;;;;;;;;;19.96;59.86;100970.22;5069861;28;1150;-20
2023/06/23 10:30:33;;;;;;;;;;;;;;;19.90;59.93;100971.56;5077189;28;1222;-21
2023/06/23 10:32:58;;;;;;;;;;;;;;;19.84;59.93;100969.41;5075396;28;1897;-20
2023/06/23 10:35:24;;;;;;;;;;;;;;;19.74;60.01;100969.34;5057021;28;1286;-20
2023/06/23 10:37:50;;;;;;;;;;;;;;;19.67;60.42;100962.81;5078156;28;1179;-20
2023/06/23 10:40:18;;;;;;;;;;;;;;;19.66;60.14;100970.00;5080510;28;1233;-20
2023/06/23 10:42:43;;;;;;;;;;;;;;;19.61;60.24;100961.50;5057310;28;1183;-20
2023/06/23 10:45:09;;;;;;;;;;;;;;;19.59;60.38;100971.47;5074844;28;1238;-21
2023/06/23 10:47:35;;;;;;;;;;;;;;;19.49;60.41;100962.50;5088862;28;1257;-19
2023/06/23 10:50:00;;;;;;;;;;;;;;;19.51;60.30;100960.56;5059272;28;1206;-20
2023/06/23 10:52:26;;;;;;;;;;;;;;;19.47;60.40;100959.16;5057388;28;1254;-20
2023/06/23 10:54:52;;;;;;;;;;;;;;;19.41;60.71;100956.00;5078867;28;1925;-21
2023/06/23 10:57:17;;;;;;;;;;;;;;;19.48;60.59;100955.50;5061382;28;1353;-20
2023/06/23 10:59:43;;;;;;;;;;;;;;;19.49;60.84;100952.69;5078506;28;1274;-22
2023/06/23 11:02:12;;;;;;;;;;;;;;;19.47;61.16;100945.81;5081429;28;1249;-20
2023/06/23 11:04:41;;;;;;;;;;;;;;;20.77;63.38;100958.03;5096451;28;1222;-20
2023/06/23 11:07:07;;;;;;;;;;;;;;;24.02;49.93;100942.19;5085161;28;1363;-21
2023/06/23 11:09:47;;;;;;;;;;;;;;;19.99;58.02;100950.41;5078272;28;1222;-21
2023/06/23 11:12:31;;;;;;;;;;;;;;;19.44;59.95;100937.06;5077927;28;1198;-20
2023/06/23 11:15:03;;;;;;;;;;;;;;;19.29;60.39;100941.00;5083716;28;1910;-20
2023/06/23 11:17:29;;;;;;;;;;;;;;;19.32;60.76;100930.94;5078592;28;1301;-21
2023/06/23 11:19:54;;;;;;;;;;;;;;;19.28;61.03;100933.97;5078199;28;1364;-21
2023/06/23 11:22:23;;;;;;;;;;;;;;;19.32;61.27;100932.72;5060675;28;1231;-21
2023/06/23 11:24:52;;;;;;;;;;;;;;;20.51;63.32;100934.44;5087745;28;1078;-20
2023/06/23 11:27:18;;;;;;;;;;;;;;;23.81;50.54;100937.97;5096163;28;1082;-20
2023/06/23 11:29:43;;;;;;;;;;;;;;;19.95;58.00;100936.50;5091994;28;1031;-20
2023/06/23 11:32:12;;;;;;;;;;;;;;;19.33;60.45;100934.44;5066732;28;1465;-20
2023/06/23 11:34:57;;;;;;;;;;;;;;;19.19;60.85;100936.41;5078574;28;1921;-21
2023/06/23 11:37:25;;;;;;;;;;;;;;;19.26;61.04;100933.25;5085818;28;999;-21
2023/06/23 11:39:51;;;;;;;;;;;;;;;19.27;61.62;100927.78;5077420;28;909;-20
2023/06/23 11:42:17;;;;;;;;;;;;;;;19.22;61.53;100921.97;5077207;28;1154;-20
2023/06/23 11:44:42;;;;;;;;;;;;;;;21.28;60.15;100930.47;5081509;28;1158;-20
2023/06/23 11:47:08;;;;;;;;;;;;;;;22.57;52.73;100923.06;5078426;28;1138;-22
2023/06/23 11:49:34;;;;;;;;;;;;;;;19.57;58.70;100925.38;5082461;28;1218;-21
2023/06/23 11:52:08;;;;;;;;;;;;;;;19.21;60.73;100931.81;5087074;28;1182;-21
2023/06/23 11:54:35;;;;;;;;;;;;;;;19.25;60.67;100929.72;5096090;28;1980;-21
2023/06/23 11:57:03;;;;;;;;;;;;;;;23.14;50.36;100931.16;5086730;28;1126;-21
2023/06/23 11:59:35;;;;;;;;;;;;;;;24.90;45.76;100931.38;5096692;28;1193;-20
2023/06/23 12:02:01;;;;;;;;;;;;;;;25.76;43.30;100927.66;5097841;28;1138;-20
2023/06/23 12:04:27;;;;;;;;;;;;;;;26.10;42.73;100936.53;5089853;28;1095;-21
2023/06/23 12:06:52;;;;;;;;;;;;;;;26.32;42.22;100931.44;5080897;28;849;-21
2023/06/23 12:09:20;;;;;;;;;;;;;;;26.08;42.56;100933.16;5079803;28;1240;-21
2023/06/23 12:11:46;;;;;;;;;;;;;;;26.00;43.17;100932.19;5084807;28;1059;-21
2023/06/23 12:14:11;;;;;;;;;;;;;;;26.32;42.79;100928.75;5081988;28;1985;-22
2023/06/23 12:16:37;;;;;;;;;;;;;;;26.50;42.18;100929.41;5090954;28;1022;-21
2023/06/23 12:19:03;;;;;;;;;;;;;;;26.87;41.28;100924.34;5083615;28;1127;-21
2023/06/23 12:21:28;;;;;;;;;;;;;;;26.98;41.04;100916.84;5091636;28;1063;-21
2023/06/23 12:23:56;;;;;;;;;;;;;;;27.06;41.09;100918.69;5071828;28;1104;-22
2023/06/23 12:26:21;;;;;;;;;;;;;;;27.06;41.20;100919.50;5097663;28;1201;-21
2023/06/23 12:28:47;;;;;;;;;;;;;;;27.18;41.13;100919.09;5081458;28;1356;-21
2023/06/23 12:31:13;;;;;;;;;;;;;;;27.26;40.77;100906.38;5096237;28;1086;-21
2023/06/23 12:33:39;;;;;;;;;;;;;;;27.30;40.87;100912.28;5083511;28;1991;-22
2023/06/23 12:36:08;;;;;;;;;;;;;;;27.36;40.67;100906.13;5076898;28;1281;-23
2023/06/23 12:38:37;;;;;;;;;;;;;;;27.47;40.47;100906.75;5080437;28;1253;-22
2023/06/23 12:41:15;;;;;;;;;;;;;;;27.48;40.71;100916.50;5076892;28;1154;-22
2023/06/23 12:43:42;;;;;;;;;;;;;;;27.64;40.47;100920.97;5089258;28;1090;-22
2023/06/23 12:46:08;;;;;;;;;;;;;;;27.62;40.60;100923.84;5086809;28;1118;-21